Star City, IN (46985)

10:24 PM EST on February 21, 2017 (GMT -0500)
Capper Hill | | Change Station
Active Advisory: Marine Fog Advisory

Elev 791 ft 40.98 °N, 86.47 °W | Updated 1 minute ago

Mostly Cloudy
Mostly Cloudy
54.3 °F
Feels Like 54.3 °F
N
6.3
Wind Variable Wind from SE
Gusts 9.0 mph

Today
High -- | Low -- °F
--% Chance of Precip.
Yesterday
High -- | Low -- °F
Precip. -- in
Pressure 29.93 in
Visibility 7.0 miles
Clouds Scattered Clouds 5500 ft
Overcast 7000 ft
Dew Point 50 °F
Humidity 86%
Rainfall 0.58 in
Snow Depth Not available.
7:31 AM 6:28 PM
Waning Crescent, 20% visible
METAR KGGP 220315Z AUTO 14004KT 7SM SCT055 OVC070 10/09 A2993 RMK AO2
Pressure 29.93 in
Visibility 7.0 miles
Clouds Scattered Clouds 5500 ft
Overcast 7000 ft
Dew Point 50 °F
Humidity 86%
Rainfall 0.58 in
Snow Depth Not available.
7:31 AM 6:28 PM
Waning Crescent, 20% visible
METAR KGGP 220315Z AUTO 14004KT 7SM SCT055 OVC070 10/09 A2993 RMK AO2

Get Your Daily Forecast Email!

Thanks for signing up!

Be on the lookout for a verification email in your inbox.

You'll start receiving the daily forecast at 8 AM.

×

10-Day Weather Forecast

Almanac

Astronomy

Feb. 21, 2017 Rise Set
Actual Time
Civil Twilight
Nautical Twilight
Astronomical Twilight
Moon
Length of Visible Light
Length of Day
Tomorrow will be .
, % of the Moon is Illuminated

Today's Extremes

State Highs State Lows

Community

WunderPhotos

Upload Photos

1,962,540 photos uploaded!

WunderBlog® & News

Nearby

Air Quality

  Air Quality AQ Index Pollutant
Not available.

Snow Depth

Station Depth Elevation

Earthquake Activity

City Distance Mag. Time & Date
Minimum magnitude displayed is 2.5.

Coastal Water Temperatures

Place Temperature

Stations

Nearby Weather Stations

Station Location Temp. Windchill Dew Point Humidity Wind Precip. Elev Updated Type
                   

Watches & Warnings

Marine Fog Advisory
Issued: 7:11 PM CST Feb. 21, 2017 – National Weather Service

... Dense fog advisory in effect until 9 am CST Wednesday...

The National Weather Service in Chicago has issued a dense fog
advisory, which is in effect until 9 am CST Wednesday.

* Visibility... less than one quarter mile.

Precautionary/preparedness actions...

A dense fog advisory means visibilities will frequently be
reduced to less than one mile. Inexperienced mariners...
especially those operating smaller vessels should avoid
navigating in these conditions.